Time;durP1;ratioP1;P1;durP2;ratioP2;P2;SDS_P1;SDS_P2;PMS_P1;PMS_P2;Temp;Humidity;BMP_temperature;BMP_pressure;BME280_temperature;BME280_humidity;BME280_pressure;Samples;Min_cycle;Max_cycle;Signal;HPM_P1;HPM_P2
2024/04/06 00:00:14;;;;;;;5.27;4.20;;;;;;;7.80;61.31;94020.13;521720;28;833;-71
2024/04/06 00:00:30;;;;;;;5.60;4.32;;;;;;;7.73;61.53;94019.97;521521;28;825;-71
2024/04/06 00:00:45;;;;;;;6.18;4.47;;;;;;;7.70;61.64;94018.22;521654;28;859;-71
2024/04/06 00:01:00;;;;;;;5.60;4.57;;;;;;;7.65;61.68;94017.78;521327;28;1693;-71
2024/04/06 00:01:16;;;;;;;5.33;4.70;;;;;;;7.60;62.15;94026.81;521386;28;784;-71
2024/04/06 00:01:31;;;;;;;6.32;4.50;;;;;;;7.60;62.25;94026.09;521438;28;851;-71
2024/04/06 00:01:48;;;;;;;6.37;4.53;;;;;;;7.62;62.06;94027.03;521630;28;940;-71
2024/04/06 00:02:04;;;;;;;6.13;5.05;;;;;;;7.65;62.08;94022.53;521695;28;877;-71
2024/04/06 00:02:20;;;;;;;6.10;5.00;;;;;;;7.70;61.92;94026.47;521622;28;934;-71
2024/04/06 00:02:35;;;;;;;5.10;4.60;;;;;;;7.74;61.54;94026.94;521641;28;856;-71
2024/04/06 00:02:51;;;;;;;5.50;4.53;;;;;;;7.76;61.67;94025.16;521609;28;828;-71
2024/04/06 00:03:07;;;;;;;6.40;4.78;;;;;;;7.81;61.71;94029.09;521780;28;921;-71
2024/04/06 00:03:23;;;;;;;6.43;4.80;;;;;;;7.84;61.60;94022.59;521341;28;1631;-71
2024/04/06 00:03:38;;;;;;;6.07;4.53;;;;;;;7.87;61.69;94027.78;521665;28;809;-71
2024/04/06 00:03:53;;;;;;;5.53;4.33;;;;;;;7.90;61.76;94031.50;521675;28;768;-71
2024/04/06 00:04:09;;;;;;;5.40;4.30;;;;;;;7.92;61.41;94029.00;520735;28;1698;-71
2024/04/06 00:04:24;;;;;;;5.32;4.00;;;;;;;7.94;61.39;94029.22;521390;28;847;-71
2024/04/06 00:04:41;;;;;;;7.13;4.17;;;;;;;7.95;61.51;94025.22;521697;28;931;-71
2024/04/06 00:04:56;;;;;;;7.20;4.60;;;;;;;7.94;61.60;94026.47;521345;28;1087;-71
2024/04/06 00:05:12;;;;;;;5.17;4.27;;;;;;;7.90;61.77;94026.00;521654;28;903;-71
2024/04/06 00:05:28;;;;;;;6.20;4.22;;;;;;;7.84;61.71;94025.34;521649;28;868;-71
2024/04/06 00:05:43;;;;;;;6.50;4.53;;;;;;;7.79;61.78;94026.13;521729;28;840;-71
2024/04/06 00:05:59;;;;;;;5.28;4.40;;;;;;;7.71;62.07;94028.69;521717;28;848;-71
2024/04/06 00:06:14;;;;;;;5.23;4.47;;;;;;;7.69;62.22;94031.22;521668;28;860;-71
2024/04/06 00:06:30;;;;;;;5.03;4.10;;;;;;;7.68;62.15;94029.00;521403;28;947;-72
2024/04/06 00:06:45;;;;;;;4.10;3.57;;;;;;;7.64;62.17;94027.28;520701;28;1698;-70
2024/04/06 00:07:00;;;;;;;4.65;3.95;;;;;;;7.63;62.48;94025.03;520366;28;777;-71
2024/04/06 00:07:16;;;;;;;4.93;3.87;;;;;;;7.62;62.49;94026.31;520714;28;1041;-71
2024/04/06 00:07:31;;;;;;;5.30;3.90;;;;;;;7.60;62.60;94034.34;521635;28;827;-71
2024/04/06 00:07:47;;;;;;;5.90;3.97;;;;;;;7.55;62.83;94026.88;521746;28;925;-71
2024/04/06 00:08:03;;;;;;;5.18;3.50;;;;;;;7.50;62.84;94025.69;521483;28;1005;-71
2024/04/06 00:08:18;;;;;;;4.47;3.50;;;;;;;7.47;63.05;94023.22;521691;28;905;-73
2024/04/06 00:08:34;;;;;;;4.20;3.40;;;;;;;7.43;63.19;94022.75;521648;28;859;-71
2024/04/06 00:08:50;;;;;;;3.83;3.10;;;;;;;7.41;63.41;94031.50;521664;28;768;-71
2024/04/06 00:09:05;;;;;;;3.53;3.10;;;;;;;7.41;63.51;94028.00;521607;28;875;-71
2024/04/06 00:09:21;;;;;;;3.67;2.97;;;;;;;7.42;63.37;94024.78;521635;28;820;-71
2024/04/06 00:09:36;;;;;;;4.03;3.03;;;;;;;7.42;63.49;94024.78;521754;28;1003;-71
2024/04/06 00:09:52;;;;;;;4.85;3.20;;;;;;;7.41;63.54;94019.78;521548;28;1172;-71
2024/04/06 00:10:07;;;;;;;4.13;2.87;;;;;;;7.39;63.39;94023.03;521688;28;808;-71
2024/04/06 00:10:23;;;;;;;3.47;2.60;;;;;;;7.39;63.38;94020.28;521546;28;840;-71
2024/04/06 00:10:38;;;;;;;3.00;2.43;;;;;;;7.40;63.47;94027.28;521489;28;840;-71
2024/04/06 00:10:53;;;;;;;3.38;2.28;;;;;;;7.42;63.54;94024.78;521542;28;785;-71
2024/04/06 00:11:09;;;;;;;4.00;2.37;;;;;;;7.43;63.42;94029.00;520524;28;1690;-71
2024/04/06 00:11:24;;;;;;;2.88;2.20;;;;;;;7.44;63.36;94021.50;521222;28;898;-71
2024/04/06 00:11:40;;;;;;;2.43;2.20;;;;;;;7.45;63.37;94020.97;521378;28;922;-71
2024/04/06 00:11:55;;;;;;;2.97;2.60;;;;;;;7.48;63.33;94017.22;521482;28;765;-71
2024/04/06 00:12:11;;;;;;;3.05;2.50;;;;;;;7.52;63.31;94019.66;520513;28;919;-71
2024/04/06 00:12:27;;;;;;;3.53;2.20;;;;;;;7.54;63.11;94017.13;521491;28;1061;-71
2024/04/06 00:12:42;;;;;;;3.60;2.05;;;;;;;7.56;63.23;94014.63;521665;28;840;-71
2024/04/06 00:12:58;;;;;;;3.03;2.00;;;;;;;7.58;62.92;94012.09;521467;28;1070;-71
2024/04/06 00:13:13;;;;;;;3.50;2.20;;;;;;;7.58;62.90;94009.34;521588;28;893;-72
2024/04/06 00:13:29;;;;;;;3.28;2.30;;;;;;;7.60;62.73;94013.06;521627;28;868;-70
2024/04/06 00:13:44;;;;;;;3.27;2.00;;;;;;;7.60;62.92;94015.09;521684;28;761;-70
2024/04/06 00:13:59;;;;;;;3.03;2.08;;;;;;;7.59;63.04;94017.09;521657;28;860;-70
2024/04/06 00:14:18;;;;;;;2.73;2.30;;;;;;;7.53;63.04;94005.44;521662;28;803;-71
2024/04/06 00:14:34;;;;;;;2.90;2.13;;;;;;;7.46;63.38;94008.75;521555;28;1142;-70
2024/04/06 00:14:49;;;;;;;4.13;2.40;;;;;;;7.43;63.63;94014.50;521671;28;749;-70
2024/04/06 00:15:05;;;;;;;5.43;2.50;;;;;;;7.41;63.64;94012.28;521736;28;840;-70
2024/04/06 00:15:20;;;;;;;4.70;2.30;;;;;;;7.38;64.12;94007.84;521224;28;1728;-71
2024/04/06 00:15:36;;;;;;;2.90;2.10;;;;;;;7.35;64.39;94011.59;520544;28;1922;-70
2024/04/06 00:15:51;;;;;;;3.30;2.33;;;;;;;7.36;64.29;94010.31;520672;28;1051;-70
2024/04/06 00:16:06;;;;;;;3.90;2.53;;;;;;;7.09;64.28;93969.41;519556;28;813;-70
2024/04/06 00:16:22;;;;;;;3.43;2.60;;;;;;;7.35;64.42;94014.34;520732;28;982;-70
2024/04/06 00:16:37;;;;;;;3.80;2.70;;;;;;;7.38;64.30;94010.56;521615;28;852;-70
2024/04/06 00:16:53;;;;;;;3.53;2.50;;;;;;;7.40;64.38;94010.81;521689;28;761;-71
2024/04/06 00:17:09;;;;;;;2.57;2.37;;;;;;;7.42;64.44;94008.28;521689;28;891;-70
2024/04/06 00:17:26;;;;;;;2.65;2.33;;;;;;;7.44;64.32;94008.50;521562;28;895;-70
2024/04/06 00:17:41;;;;;;;2.33;2.10;;;;;;;7.47;64.26;94009.50;521641;28;930;-70
2024/04/06 00:17:57;;;;;;;2.40;2.20;;;;;;;7.49;64.04;94007.69;521633;28;1188;-70
2024/04/06 00:18:12;;;;;;;2.60;2.40;;;;;;;7.51;64.21;94007.91;521681;28;836;-70
2024/04/06 00:18:28;;;;;;;2.72;2.42;;;;;;;7.54;64.03;94006.16;520654;28;1637;-70
2024/04/06 00:18:43;;;;;;;4.30;2.97;;;;;;;7.54;63.81;94004.16;520915;28;848;-70
2024/04/06 00:18:58;;;;;;;4.97;3.75;;;;;;;7.54;63.62;94006.16;520948;28;789;-70
2024/04/06 00:19:14;;;;;;;5.20;4.13;;;;;;;7.53;63.32;93999.94;522053;28;844;-70
2024/04/06 00:19:29;;;;;;;7.10;4.30;;;;;;;7.54;63.32;94003.41;522047;28;976;-70
2024/04/06 00:19:45;;;;;;;7.88;4.88;;;;;;;7.55;62.97;94005.66;522140;28;843;-70
2024/04/06 00:20:00;;;;;;;6.60;5.10;;;;;;;7.57;63.13;94000.38;521996;28;848;-70
2024/04/06 00:20:16;;;;;;;7.10;4.85;;;;;;;7.59;63.04;94002.63;522116;28;785;-70
2024/04/06 00:20:34;;;;;;;6.50;4.77;;;;;;;7.60;63.11;93993.13;520559;28;1109;-70
2024/04/06 00:20:50;;;;;;;5.72;4.68;;;;;;;7.61;62.98;94006.34;522137;28;824;-70
2024/04/06 00:21:05;;;;;;;5.67;4.63;;;;;;;7.61;63.03;94000.84;521478;28;1448;-70
2024/04/06 00:21:21;;;;;;;6.43;5.00;;;;;;;7.63;62.88;93998.31;521718;28;884;-70
2024/04/06 00:21:36;;;;;;;7.30;5.43;;;;;;;7.63;62.90;93992.81;521378;28;877;-70
2024/04/06 00:21:52;;;;;;;6.60;5.45;;;;;;;7.62;62.73;93990.59;519971;28;816;-70
2024/04/06 00:22:07;;;;;;;6.77;5.50;;;;;;;7.61;62.60;93989.84;520419;28;872;-71
2024/04/06 00:22:23;;;;;;;7.50;5.47;;;;;;;7.65;62.53;93993.03;522032;28;780;-70
2024/04/06 00:22:38;;;;;;;7.20;5.47;;;;;;;7.65;62.21;93992.28;521773;28;1076;-70
2024/04/06 00:22:54;;;;;;;6.40;5.60;;;;;;;7.59;62.04;93991.63;521965;28;912;-70
2024/04/06 00:23:09;;;;;;;6.10;5.23;;;;;;;7.54;62.33;93990.41;521949;28;844;-70
2024/04/06 00:23:25;;;;;;;6.10;4.80;;;;;;;7.53;62.45;93994.44;522069;28;821;-70
2024/04/06 00:23:41;;;;;;;5.88;4.88;;;;;;;7.53;62.53;93988.94;521952;28;868;-70
2024/04/06 00:23:56;;;;;;;5.97;5.13;;;;;;;7.53;62.68;93988.94;522099;28;757;-70
2024/04/06 00:24:12;;;;;;;6.93;5.07;;;;;;;7.53;62.64;93991.69;522101;28;863;-70
2024/04/06 00:24:27;;;;;;;6.57;4.87;;;;;;;7.51;63.06;93987.97;520294;28;981;-70
2024/04/06 00:24:43;;;;;;;5.72;4.70;;;;;;;7.50;63.29;93986.47;520038;28;835;-70
2024/04/06 00:24:58;;;;;;;6.77;4.80;;;;;;;7.46;63.59;93989.50;519928;28;757;-71
2024/04/06 00:25:14;;;;;;;7.00;4.95;;;;;;;7.46;63.58;93983.25;519965;28;907;-70
2024/04/06 00:25:30;;;;;;;6.77;4.90;;;;;;;7.47;63.60;93985.50;521441;28;779;-70
2024/04/06 00:25:45;;;;;;;6.32;4.75;;;;;;;7.50;63.67;93991.97;519944;28;769;-70
2024/04/06 00:26:01;;;;;;;7.30;4.73;;;;;;;7.50;63.84;93981.72;521375;28;1093;-70
2024/04/06 00:26:16;;;;;;;8.03;4.77;;;;;;;7.53;63.73;93988.19;522079;28;892;-71
2024/04/06 00:26:31;;;;;;;6.70;4.80;;;;;;;7.53;63.64;93988.94;522003;28;765;-70
2024/04/06 00:26:47;;;;;;;5.97;5.05;;;;;;;7.54;63.41;93989.66;521881;28;833;-70
2024/04/06 00:27:03;;;;;;;6.33;5.20;;;;;;;7.54;63.46;93984.16;521880;28;864;-70
2024/04/06 00:27:18;;;;;;;5.60;4.68;;;;;;;7.54;63.40;93989.66;522050;28;852;-70
2024/04/06 00:27:33;;;;;;;5.73;4.53;;;;;;;7.50;63.55;93978.97;522171;28;970;-70
2024/04/06 00:27:49;;;;;;;6.28;4.88;;;;;;;7.49;63.57;93988.47;521846;28;837;-70
2024/04/06 00:28:04;;;;;;;6.00;4.80;;;;;;;7.49;63.42;93991.22;520766;28;1798;-70
2024/04/06 00:28:22;;;;;;;6.80;5.00;;;;;;;7.49;63.54;93985.00;521452;28;845;-70
2024/04/06 00:28:37;;;;;;;6.60;4.78;;;;;;;7.50;63.30;93989.22;521895;28;863;-71
2024/04/06 00:28:53;;;;;;;5.18;4.35;;;;;;;7.50;63.44;93995.47;522020;28;876;-70
2024/04/06 00:29:08;;;;;;;4.87;4.00;;;;;;;7.50;63.14;93987.22;521051;28;973;-71
2024/04/06 00:29:24;;;;;;;4.43;3.90;;;;;;;7.32;63.22;93965.91;521991;28;859;-71
2024/04/06 00:29:39;;;;;;;4.73;4.20;;;;;;;7.45;63.31;93990.03;522079;28;745;-70
2024/04/06 00:29:55;;;;;;;5.47;4.20;;;;;;;7.40;63.43;93991.56;521955;28;1572;-71
2024/04/06 00:30:10;;;;;;;4.60;3.80;;;;;;;7.30;63.55;93992.41;521927;28;777;-71
2024/04/06 00:30:26;;;;;;;4.20;3.57;;;;;;;7.20;63.37;93994.75;520636;28;859;-70
2024/04/06 00:30:41;;;;;;;7.18;3.92;;;;;;;7.12;63.55;93988.34;519940;28;828;-70
2024/04/06 00:30:57;;;;;;;6.57;3.73;;;;;;;7.02;63.81;93984.44;519881;28;1002;-70
2024/04/06 00:31:12;;;;;;;4.32;3.13;;;;;;;6.97;63.73;93988.00;520791;28;1646;-70
2024/04/06 00:31:28;;;;;;;3.87;2.83;;;;;;;6.96;64.06;93989.22;522065;28;797;-70
2024/04/06 00:31:43;;;;;;;2.97;2.65;;;;;;;6.90;64.26;93988.53;520601;28;848;-70
2024/04/06 00:31:59;;;;;;;3.03;2.57;;;;;;;6.87;64.70;93992.28;519931;28;761;-70
2024/04/06 00:32:14;;;;;;;2.70;2.47;;;;;;;6.83;64.68;93995.34;521333;28;856;-71
2024/04/06 00:32:29;;;;;;;2.50;2.27;;;;;;;6.75;64.90;93994.41;521735;28;958;-70
2024/04/06 00:32:45;;;;;;;2.65;1.95;;;;;;;6.71;65.15;93996.66;521957;28;837;-70
2024/04/06 00:33:01;;;;;;;2.60;2.00;;;;;;;6.68;65.03;94000.44;522045;28;828;-71
2024/04/06 00:33:16;;;;;;;2.53;2.07;;;;;;;6.62;65.19;93997.00;521949;28;1535;-71
2024/04/06 00:33:32;;;;;;;2.92;2.20;;;;;;;6.59;65.72;94000.00;521969;28;872;-70
2024/04/06 00:33:47;;;;;;;2.43;2.10;;;;;;;6.56;65.40;93993.53;522061;28;789;-71
2024/04/06 00:34:03;;;;;;;1.93;1.73;;;;;;;6.52;65.85;93997.81;521892;28;1097;-71
2024/04/06 00:34:18;;;;;;;1.60;1.50;;;;;;;6.52;65.62;93997.81;521997;28;777;-70
2024/04/06 00:34:34;;;;;;;1.57;1.47;;;;;;;6.53;65.48;93993.81;522075;28;843;-70
2024/04/06 00:34:49;;;;;;;2.20;1.70;;;;;;;6.52;65.78;94003.31;522003;28;808;-70
2024/04/06 00:35:05;;;;;;;2.73;1.87;;;;;;;6.54;65.70;93998.06;522059;28;773;-72
2024/04/06 00:35:20;;;;;;;2.65;1.73;;;;;;;6.53;65.77;93993.81;521274;28;1606;-70
2024/04/06 00:35:35;;;;;;;2.20;1.60;;;;;;;6.54;66.18;93996.03;521754;28;2000;-70
2024/04/06 00:35:51;;;;;;;2.08;1.67;;;;;;;6.55;66.13;93997.53;521988;28;903;-70
2024/04/06 00:36:07;;;;;;;1.87;1.63;;;;;;;6.55;65.92;94002.28;522034;28;820;-70
2024/04/06 00:36:22;;;;;;;1.75;1.60;;;;;;;6.50;65.91;93995.56;521912;28;910;-70
2024/04/06 00:36:38;;;;;;;2.00;1.80;;;;;;;6.55;65.75;93997.53;522046;28;1641;-70
2024/04/06 00:36:54;;;;;;;2.50;1.80;;;;;;;6.56;66.22;93999.00;521861;28;983;-70
2024/04/06 00:37:10;;;;;;;2.20;1.73;;;;;;;6.59;65.83;93997.25;522044;28;802;-70
2024/04/06 00:37:25;;;;;;;2.00;1.80;;;;;;;6.62;65.89;94001.72;521733;28;1005;-70
2024/04/06 00:37:41;;;;;;;1.63;1.53;;;;;;;6.65;65.90;93998.69;522051;28;791;-71
2024/04/06 00:37:56;;;;;;;1.50;1.40;;;;;;;6.66;65.56;94002.94;521444;28;1722;-71
2024/04/06 00:38:12;;;;;;;1.77;1.40;;;;;;;6.67;66.32;93995.47;521676;28;907;-70
2024/04/06 00:38:27;;;;;;;1.70;1.40;;;;;;;6.65;66.06;93992.47;521817;28;836;-70
2024/04/06 00:38:43;;;;;;;1.60;1.43;;;;;;;6.64;65.99;93999.22;521910;28;860;-70
2024/04/06 00:38:59;;;;;;;1.73;1.63;;;;;;;6.65;66.22;93997.94;521602;28;1054;-71
2024/04/06 00:39:14;;;;;;;1.80;1.70;;;;;;;6.67;66.05;93995.47;519923;28;810;-71
2024/04/06 00:39:30;;;;;;;1.60;1.40;;;;;;;6.71;65.61;93993.19;521838;28;835;-70
2024/04/06 00:39:45;;;;;;;1.38;1.27;;;;;;;6.74;65.70;93994.91;522178;28;2279;-70
2024/04/06 00:40:01;;;;;;;1.40;1.30;;;;;;;6.76;65.68;93990.38;523931;28;840;-70
2024/04/06 00:40:17;;;;;;;1.42;1.33;;;;;;;6.81;65.45;93986.13;522471;28;855;-70
2024/04/06 00:40:33;;;;;;;1.67;1.40;;;;;;;6.85;65.10;93997.56;523807;28;1139;-71
2024/04/06 00:40:48;;;;;;;1.70;1.42;;;;;;;6.87;65.22;93984.06;523899;28;951;-70
2024/04/06 00:41:04;;;;;;;1.70;1.60;;;;;;;6.91;65.29;93992.03;523500;28;1761;-70
2024/04/06 00:41:19;;;;;;;1.80;1.70;;;;;;;6.93;65.04;93995.75;522395;28;812;-70
2024/04/06 00:41:35;;;;;;;2.30;1.83;;;;;;;6.94;64.88;93988.25;522026;28;1115;-70
2024/04/06 00:41:50;;;;;;;2.35;1.83;;;;;;;6.94;65.05;93988.25;523893;28;780;-70
2024/04/06 00:42:08;;;;;;;1.90;1.70;;;;;;;6.96;65.09;93985.75;523630;28;1112;-70
2024/04/06 00:42:23;;;;;;;2.55;1.85;;;;;;;6.96;65.14;93978.25;521733;28;879;-70
2024/04/06 00:42:39;;;;;;;2.37;1.73;;;;;;;6.98;65.05;93992.22;521917;28;761;-70
2024/04/06 00:42:54;;;;;;;2.42;1.65;;;;;;;7.00;64.78;93988.94;521830;28;804;-70
2024/04/06 00:43:09;;;;;;;2.37;1.77;;;;;;;6.90;65.24;93977.56;521659;28;1005;-71
2024/04/06 00:43:27;;;;;;;1.88;1.70;;;;;;;7.01;65.09;93993.19;521437;28;794;-70
2024/04/06 00:43:42;;;;;;;1.70;1.60;;;;;;;7.03;65.14;93985.94;519293;28;1717;-71
2024/04/06 00:43:58;;;;;;;1.47;1.37;;;;;;;7.03;64.93;93985.94;519656;28;797;-70
2024/04/06 00:44:14;;;;;;;1.65;1.23;;;;;;;7.02;65.27;93984.44;519703;28;768;-70
2024/04/06 00:44:29;;;;;;;1.50;1.25;;;;;;;6.99;65.01;93984.72;519515;28;902;-70
2024/04/06 00:44:45;;;;;;;1.40;1.30;;;;;;;6.99;64.96;93988.22;520559;28;1141;-70
2024/04/06 00:45:00;;;;;;;1.30;1.20;;;;;;;7.00;65.11;93991.69;517749;28;812;-70
2024/04/06 00:45:16;;;;;;;1.53;1.20;;;;;;;7.03;65.24;93985.19;518733;28;852;-70
2024/04/06 00:45:31;;;;;;;1.50;1.10;;;;;;;7.00;64.92;93975.22;521777;28;1104;-70
2024/04/06 00:45:47;;;;;;;1.00;0.97;;;;;;;7.04;64.83;93984.66;522104;28;836;-70
2024/04/06 00:46:03;;;;;;;1.10;1.00;;;;;;;7.06;64.92;93981.44;520096;28;836;-71
2024/04/06 00:46:18;;;;;;;1.07;0.93;;;;;;;7.06;65.00;93981.44;520613;28;809;-71
2024/04/06 00:46:33;;;;;;;0.90;0.90;;;;;;;7.05;64.83;93980.69;521061;28;1681;-71
2024/04/06 00:46:52;;;;;;;0.80;0.80;;;;;;;7.06;64.96;93986.91;520304;28;844;-70
2024/04/06 00:47:08;;;;;;;1.02;0.90;;;;;;;7.05;65.04;93975.19;521490;28;1017;-70
2024/04/06 00:47:23;;;;;;;1.50;1.02;;;;;;;7.06;65.10;93979.41;522014;28;784;-71
2024/04/06 00:47:39;;;;;;;1.83;1.10;;;;;;;6.81;64.56;93948.44;522030;28;839;-70
2024/04/06 00:47:54;;;;;;;1.80;1.10;;;;;;;7.05;64.69;93977.19;521942;28;867;-70
2024/04/06 00:48:11;;;;;;;1.17;1.00;;;;;;;7.06;64.60;93979.41;521994;28;1226;-71
2024/04/06 00:48:26;;;;;;;1.17;1.08;;;;;;;7.07;64.46;93980.16;521639;28;891;-71
2024/04/06 00:48:41;;;;;;;1.42;1.02;;;;;;;7.06;64.33;93976.66;521535;28;1005;-71
2024/04/06 00:48:57;;;;;;;1.33;1.03;;;;;;;7.09;64.20;93974.88;522007;28;753;-72
2024/04/06 00:49:13;;;;;;;1.38;1.27;;;;;;;7.10;64.55;93979.13;522150;28;859;-71
2024/04/06 00:49:28;;;;;;;1.30;1.20;;;;;;;6.85;64.51;93937.94;520316;28;833;-71
2024/04/06 00:49:44;;;;;;;1.90;1.40;;;;;;;7.12;64.23;93976.63;519990;28;1565;-72
2024/04/06 00:49:59;;;;;;;1.75;1.42;;;;;;;7.13;64.29;93981.59;519939;28;780;-71
2024/04/06 00:50:15;;;;;;;1.30;1.20;;;;;;;6.88;64.11;93944.41;520253;28;1105;-71
2024/04/06 00:50:31;;;;;;;1.50;1.40;;;;;;;7.08;64.24;93971.41;521625;28;932;-71
2024/04/06 00:50:47;;;;;;;1.88;1.45;;;;;;;7.07;64.16;93969.91;519787;28;757;-71
2024/04/06 00:51:05;;;;;;;1.92;1.60;;;;;;;7.11;64.15;93972.38;519797;28;813;-71
2024/04/06 00:51:21;;;;;;;2.30;1.90;;;;;;;7.10;64.17;93970.91;520736;28;813;-71
2024/04/06 00:51:36;;;;;;;2.67;1.98;;;;;;;7.06;63.83;93973.91;521888;28;800;-71
2024/04/06 00:51:52;;;;;;;2.13;1.80;;;;;;;7.07;63.85;93982.91;521580;28;998;-71
2024/04/06 00:52:07;;;;;;;2.57;2.03;;;;;;;7.06;63.68;93976.66;521797;28;844;-71
2024/04/06 00:52:22;;;;;;;2.80;2.40;;;;;;;7.07;63.44;93980.91;521989;28;789;-71
2024/04/06 00:52:38;;;;;;;2.43;2.20;;;;;;;7.07;63.48;93980.91;522026;28;853;-71
2024/04/06 00:52:54;;;;;;;2.35;1.98;;;;;;;7.08;63.40;93976.88;522101;28;772;-71
2024/04/06 00:53:10;;;;;;;2.33;2.10;;;;;;;7.11;63.48;93984.09;520781;28;1741;-71
2024/04/06 00:53:25;;;;;;;2.20;2.00;;;;;;;7.12;63.44;93971.88;521619;28;929;-71
2024/04/06 00:53:41;;;;;;;2.80;1.90;;;;;;;7.14;63.25;93985.09;521725;28;769;-72
2024/04/06 00:53:56;;;;;;;2.70;2.03;;;;;;;7.17;63.12;93979.31;522088;28;834;-72
2024/04/06 00:54:12;;;;;;;2.17;1.97;;;;;;;7.20;62.85;93983.03;521997;28;812;-72
2024/04/06 00:54:27;;;;;;;2.10;1.55;;;;;;;7.20;62.77;93978.28;520351;28;1267;-71
2024/04/06 00:54:43;;;;;;;1.93;1.53;;;;;;;7.21;62.73;93976.28;520046;28;771;-72
2024/04/06 00:54:58;;;;;;;1.90;1.73;;;;;;;7.23;62.58;93988.25;519982;28;761;-72
2024/04/06 00:55:14;;;;;;;1.83;1.50;;;;;;;7.24;62.63;93981.50;521392;28;1038;-72
2024/04/06 00:55:30;;;;;;;1.75;1.60;;;;;;;7.25;62.54;93977.50;521788;28;1906;-72
2024/04/06 00:55:46;;;;;;;2.42;2.03;;;;;;;7.26;62.80;93984.47;521800;28;863;-72
2024/04/06 00:56:02;;;;;;;2.73;2.00;;;;;;;7.28;62.79;93987.44;521894;28;847;-71
2024/04/06 00:56:17;;;;;;;3.13;1.80;;;;;;;7.28;62.48;93986.69;520091;28;864;-72
2024/04/06 00:56:33;;;;;;;2.80;1.80;;;;;;;7.29;62.76;93980.69;519145;28;1735;-72
2024/04/06 00:56:49;;;;;;;1.80;1.67;;;;;;;7.30;62.50;93987.66;517528;28;1002;-71
2024/04/06 00:57:08;;;;;;;1.90;1.70;;;;;;;7.31;62.39;93982.91;517584;28;959;-72
2024/04/06 00:57:23;;;;;;;2.17;1.70;;;;;;;7.31;62.50;93980.94;519076;28;825;-72
2024/04/06 00:57:39;;;;;;;2.10;1.83;;;;;;;7.33;62.18;93983.16;519730;28;856;-72
2024/04/06 00:57:54;;;;;;;2.10;1.70;;;;;;;7.33;62.13;93988.66;519859;28;844;-72
2024/04/06 00:58:10;;;;;;;1.80;1.53;;;;;;;7.33;62.13;93975.66;520743;28;863;-72
2024/04/06 00:58:26;;;;;;;1.55;1.45;;;;;;;7.33;62.06;93985.91;522017;28;1012;-72
2024/04/06 00:58:41;;;;;;;1.80;1.60;;;;;;;7.33;62.33;93983.91;521873;28;786;-72
2024/04/06 00:58:57;;;;;;;1.70;1.60;;;;;;;7.33;62.22;93985.91;521906;28;816;-72
2024/04/06 00:59:12;;;;;;;2.83;1.88;;;;;;;7.31;62.52;93982.91;521185;28;1697;-72
2024/04/06 00:59:28;;;;;;;4.43;2.20;;;;;;;7.29;62.72;93986.19;521981;28;854;-72
2024/04/06 00:59:43;;;;;;;5.53;2.13;;;;;;;7.26;62.77;93989.97;520659;28;995;-72
2024/04/06 00:59:59;;;;;;;3.95;1.80;;;;;;;7.17;62.91;93967.59;520384;28;1068;-72
2024/04/06 01:00:15;;;;;;;1.65;1.55;;;;;;;7.26;62.83;93992.69;521975;28;887;-72
2024/04/06 01:00:30;;;;;;;1.50;1.40;;;;;;;7.27;62.77;93988.72;521910;28;741;-73
2024/04/06 01:00:46;;;;;;;2.10;1.60;;;;;;;7.28;62.77;93989.44;522042;28;914;-72
2024/04/06 01:01:01;;;;;;;2.23;1.60;;;;;;;7.28;62.68;93984.69;523828;28;884;-72
2024/04/06 01:01:16;;;;;;;1.75;1.48;;;;;;;7.30;62.72;93989.66;523613;28;1017;-72
2024/04/06 01:01:32;;;;;;;1.90;1.67;;;;;;;7.29;62.52;93983.44;523798;28;1108;-71
2024/04/06 01:01:48;;;;;;;2.50;1.70;;;;;;;7.31;62.44;93993.91;521658;28;1033;-72
2024/04/06 01:02:04;;;;;;;2.30;1.42;;;;;;;7.31;62.51;93996.66;521922;28;866;-72
2024/04/06 01:02:20;;;;;;;2.10;1.30;;;;;;;7.31;62.42;93991.16;522289;28;895;-72
2024/04/06 01:02:35;;;;;;;2.00;1.50;;;;;;;7.31;62.58;93994.66;523921;28;921;-72
2024/04/06 01:02:51;;;;;;;1.80;1.70;;;;;;;7.31;62.49;93994.66;523419;28;797;-72
2024/04/06 01:03:06;;;;;;;1.90;1.70;;;;;;;7.32;62.81;93992.66;521040;28;1737;-72
2024/04/06 01:03:22;;;;;;;1.77;1.60;;;;;;;7.31;62.52;94000.16;521851;28;1195;-71
2024/04/06 01:03:37;;;;;;;1.93;1.60;;;;;;;7.32;62.47;93990.63;522055;28;787;-72
2024/04/06 01:03:53;;;;;;;3.65;1.60;;;;;;;7.33;62.49;93997.63;522042;28;908;-72
2024/04/06 01:04:08;;;;;;;3.30;1.60;;;;;;;7.33;62.45;93996.88;522023;28;737;-72
2024/04/06 01:04:24;;;;;;;1.58;1.40;;;;;;;7.33;62.52;94000.38;521878;28;781;-71
2024/04/06 01:04:40;;;;;;;1.80;1.48;;;;;;;7.33;62.61;93994.13;521830;28;1040;-71
2024/04/06 01:04:55;;;;;;;1.80;1.60;;;;;;;7.33;62.26;93992.13;521792;28;1171;-71
2024/04/06 01:05:11;;;;;;;1.70;1.55;;;;;;;7.32;62.59;93993.38;521749;28;780;-72
2024/04/06 01:05:27;;;;;;;2.37;1.50;;;;;;;7.33;62.57;93992.13;522035;28;819;-73
2024/04/06 01:05:43;;;;;;;2.78;1.60;;;;;;;7.35;62.59;94000.59;521961;28;829;-72
2024/04/06 01:05:58;;;;;;;2.10;1.60;;;;;;;7.34;62.56;93992.88;521908;28;843;-72
2024/04/06 01:06:14;;;;;;;1.80;1.55;;;;;;;7.33;62.53;93997.63;521908;28;785;-72
2024/04/06 01:06:29;;;;;;;2.17;1.50;;;;;;;7.34;62.67;93992.88;521643;28;1401;-72
2024/04/06 01:06:45;;;;;;;2.13;1.40;;;;;;;7.34;62.22;93995.63;520938;28;931;-72
2024/04/06 01:07:01;;;;;;;1.65;1.50;;;;;;;7.33;62.41;93989.41;521212;28;780;-72
2024/04/06 01:07:16;;;;;;;1.70;1.60;;;;;;;7.31;62.91;93999.41;520388;28;796;-72
2024/04/06 01:07:32;;;;;;;1.80;1.70;;;;;;;7.30;62.76;93992.41;521990;28;970;-72
2024/04/06 01:07:47;;;;;;;1.90;1.70;;;;;;;7.25;62.83;93991.22;521976;28;789;-72
2024/04/06 01:08:03;;;;;;;2.85;1.50;;;;;;;7.22;63.01;93986.75;521643;28;1094;-71
2024/04/06 01:08:19;;;;;;;2.77;1.57;;;;;;;7.19;63.37;93998.75;521857;28;844;-70
2024/04/06 01:08:34;;;;;;;2.17;1.80;;;;;;;7.15;63.41;93990.06;521781;28;1480;-70
2024/04/06 01:08:49;;;;;;;2.07;1.87;;;;;;;7.14;63.41;93991.34;521796;28;812;-70
2024/04/06 01:09:07;;;;;;;2.00;1.80;;;;;;;7.14;63.17;93996.81;521831;28;801;-70
2024/04/06 01:09:23;;;;;;;2.00;1.80;;;;;;;7.15;63.31;93986.56;521740;28;945;-70
2024/04/06 01:09:38;;;;;;;1.70;1.60;;;;;;;7.15;63.32;93987.31;519812;28;840;-70
2024/04/06 01:09:54;;;;;;;1.63;1.52;;;;;;;7.15;63.49;93995.53;520246;28;987;-70
2024/04/06 01:10:09;;;;;;;1.80;1.70;;;;;;;7.16;63.35;93985.31;521113;28;1709;-71
2024/04/06 01:10:26;;;;;;;1.93;1.70;;;;;;;7.16;63.46;93990.81;521887;28;839;-70
2024/04/06 01:10:42;;;;;;;2.17;1.75;;;;;;;7.15;63.55;93987.31;521830;28;836;-72
2024/04/06 01:11:00;;;;;;;2.20;1.80;;;;;;;7.11;63.64;93986.09;521786;28;852;-72
2024/04/06 01:11:15;;;;;;;2.78;1.90;;;;;;;7.05;63.75;93986.16;521620;28;948;-72
2024/04/06 01:11:35;;;;;;;2.42;1.80;;;;;;;7.04;63.78;93990.16;519907;28;887;-72
2024/04/06 01:11:51;;;;;;;1.98;1.50;;;;;;;7.04;64.00;93989.44;519905;28;868;-72
2024/04/06 01:12:06;;;;;;;1.67;1.30;;;;;;;7.03;64.17;93988.69;519949;28;903;-71
2024/04/06 01:12:22;;;;;;;2.20;1.58;;;;;;;7.04;64.13;93990.16;521230;28;800;-71
2024/04/06 01:12:38;;;;;;;2.40;1.80;;;;;;;7.06;64.13;93993.13;522126;28;856;-72
2024/04/06 01:12:53;;;;;;;1.73;1.58;;;;;;;7.06;63.97;93992.41;521795;28;1004;-72
2024/04/06 01:13:09;;;;;;;1.70;1.60;;;;;;;7.07;64.09;93982.91;521683;28;1304;-71
2024/04/06 01:13:25;;;;;;;1.70;1.60;;;;;;;7.08;63.75;93989.88;521782;28;883;-71
2024/04/06 01:13:40;;;;;;;2.42;1.50;;;;;;;7.08;63.93;93982.38;521858;28;902;-72
2024/04/06 01:13:56;;;;;;;2.57;1.53;;;;;;;7.08;63.91;93982.38;521350;28;1726;-72
2024/04/06 01:14:11;;;;;;;1.92;1.73;;;;;;;7.08;63.80;93982.38;520836;28;860;-72
2024/04/06 01:14:27;;;;;;;2.13;1.80;;;;;;;7.10;64.12;93984.63;521569;28;1216;-71
2024/04/06 01:14:42;;;;;;;3.97;1.87;;;;;;;7.10;63.82;93982.63;521792;28;1141;-71
2024/04/06 01:14:58;;;;;;;3.45;1.80;;;;;;;7.11;64.01;93980.59;521927;28;1067;-71
2024/04/06 01:15:14;;;;;;;1.53;1.40;;;;;;;7.13;64.11;93986.34;521896;28;788;-72
2024/04/06 01:15:32;;;;;;;2.33;1.45;;;;;;;7.12;64.21;93979.38;522038;28;1910;-72
2024/04/06 01:15:47;;;;;;;2.30;1.67;;;;;;;7.11;64.10;93984.09;521943;28;876;-72
2024/04/06 01:16:03;;;;;;;1.88;1.52;;;;;;;7.11;64.22;93978.63;521973;28;830;-72
2024/04/06 01:16:18;;;;;;;2.00;1.67;;;;;;;7.10;64.40;93979.13;521946;28;1124;-72
2024/04/06 01:16:34;;;;;;;3.50;1.67;;;;;;;6.95;64.51;93963.06;522003;28;903;-72
2024/04/06 01:16:50;;;;;;;3.23;1.63;;;;;;;7.11;64.46;93977.88;523980;28;848;-72
2024/04/06 01:17:05;;;;;;;2.15;1.85;;;;;;;7.07;64.23;93977.41;521799;28;801;-72
2024/04/06 01:17:20;;;;;;;2.37;1.80;;;;;;;6.98;64.33;93975.75;521374;28;777;-73